sensor_id;sensor_type;location;lat;lon;timestamp;pressure;altitude;pressure_sealevel;temperature;humidity
3096;BME280;1558;42.700;23.360;2023-08-24T00:00:26;95390.75;;;25.08;77.65
3096;BME280;1558;42.700;23.360;2023-08-24T00:02:54;95387.00;;;25.18;78.21
3096;BME280;1558;42.700;23.360;2023-08-24T00:05:22;95397.47;;;24.60;80.49
3096;BME280;1558;42.700;23.360;2023-08-24T00:07:52;95397.22;;;24.74;80.17
3096;BME280;1558;42.700;23.360;2023-08-24T00:10:20;95397.41;;;24.87;79.79
3096;BME280;1558;42.700;23.360;2023-08-24T00:12:48;95369.91;;;24.57;80.89
3096;BME280;1558;42.700;23.360;2023-08-24T00:15:18;95378.44;;;24.43;81.71
3096;BME280;1558;42.700;23.360;2023-08-24T00:17:46;95381.97;;;24.16;82.56
3096;BME280;1558;42.700;23.360;2023-08-24T00:20:15;95370.72;;;24.04;81.22
3096;BME280;1558;42.700;23.360;2023-08-24T00:22:43;95387.31;;;24.00;81.06
3096;BME280;1558;42.700;23.360;2023-08-24T00:25:13;95375.13;;;23.71;82.53
3096;BME280;1558;42.700;23.360;2023-08-24T00:27:41;95383.75;;;23.73;83.67
3096;BME280;1558;42.700;23.360;2023-08-24T00:30:10;95388.66;;;23.89;84.05
3096;BME280;1558;42.700;23.360;2023-08-24T00:32:41;95388.66;;;23.89;83.13
3096;BME280;1558;42.700;23.360;2023-08-24T00:35:13;95401.50;;;23.99;81.97
3096;BME280;1558;42.700;23.360;2023-08-24T00:37:41;95400.75;;;23.98;81.57
3096;BME280;1558;42.700;23.360;2023-08-24T00:40:13;95376.59;;;23.79;81.44
3096;BME280;1558;42.700;23.360;2023-08-24T00:42:42;95306.81;;;23.25;82.37
3096;BME280;1558;42.700;23.360;2023-08-24T00:45:12;95386.00;;;23.82;82.04
3096;BME280;1558;42.700;23.360;2023-08-24T00:47:43;95385.41;;;23.94;82.80
3096;BME280;1558;42.700;23.360;2023-08-24T00:50:12;95393.31;;;23.92;82.31
3096;BME280;1558;42.700;23.360;2023-08-24T00:52:42;95398.44;;;23.93;81.43
3096;BME280;1558;42.700;23.360;2023-08-24T00:55:10;95383.63;;;23.84;81.51
3096;BME280;1558;42.700;23.360;2023-08-24T00:57:40;95404.41;;;24.18;81.40
3096;BME280;1558;42.700;23.360;2023-08-24T01:00:09;95394.66;;;24.37;81.15
3096;BME280;1558;42.700;23.360;2023-08-24T01:02:38;95377.75;;;24.35;80.66
3096;BME280;1558;42.700;23.360;2023-08-24T01:05:07;95391.56;;;24.58;80.31
3096;BME280;1558;42.700;23.360;2023-08-24T01:07:38;95269.63;;;23.97;79.88
3096;BME280;1558;42.700;23.360;2023-08-24T01:10:25;95387.38;;;24.73;79.56
3096;BME280;1558;42.700;23.360;2023-08-24T01:13:05;95388.91;;;24.51;81.13
3096;BME280;1558;42.700;23.360;2023-08-24T01:15:38;95370.06;;;24.23;82.32
3096;BME280;1558;42.700;23.360;2023-08-24T01:18:14;95381.41;;;24.29;82.25
3096;BME280;1558;42.700;23.360;2023-08-24T01:20:47;95392.25;;;23.86;82.37
3096;BME280;1558;42.700;23.360;2023-08-24T01:23:29;95392.91;;;23.63;84.34
3096;BME280;1558;42.700;23.360;2023-08-24T01:26:08;95395.94;;;23.42;85.51
3096;BME280;1558;42.700;23.360;2023-08-24T01:28:38;95286.84;;;22.47;88.73
3096;BME280;1558;42.700;23.360;2023-08-24T01:31:06;95394.75;;;22.65;91.86
3096;BME280;1558;42.700;23.360;2023-08-24T01:33:35;95399.25;;;22.89;90.14
3096;BME280;1558;42.700;23.360;2023-08-24T01:36:04;95374.47;;;22.89;89.80
3096;BME280;1558;42.700;23.360;2023-08-24T01:38:32;95398.66;;;23.08;88.01
3096;BME280;1558;42.700;23.360;2023-08-24T01:41:11;95406.38;;;23.20;87.51
3096;BME280;1558;42.700;23.360;2023-08-24T01:43:40;95353.34;;;22.79;87.32
3096;BME280;1558;42.700;23.360;2023-08-24T01:46:12;95408.97;;;22.97;87.07
3096;BME280;1558;42.700;23.360;2023-08-24T01:48:43;95401.94;;;22.92;87.00
3096;BME280;1558;42.700;23.360;2023-08-24T01:51:12;95372.38;;;22.63;87.34
3096;BME280;1558;42.700;23.360;2023-08-24T01:53:41;95388.75;;;22.77;86.93
3096;BME280;1558;42.700;23.360;2023-08-24T01:56:12;95402.00;;;22.85;87.16
3096;BME280;1558;42.700;23.360;2023-08-24T01:58:40;95394.84;;;22.95;87.03
3096;BME280;1558;42.700;23.360;2023-08-24T02:01:08;95383.38;;;22.63;88.22
3096;BME280;1558;42.700;23.360;2023-08-24T02:03:37;95413.09;;;22.75;87.69
3096;BME280;1558;42.700;23.360;2023-08-24T02:06:07;95406.66;;;22.92;87.38
3096;BME280;1558;42.700;23.360;2023-08-24T02:08:35;95381.72;;;23.10;86.95
3096;BME280;1558;42.700;23.360;2023-08-24T02:11:03;95397.66;;;23.25;85.50
3096;BME280;1558;42.700;23.360;2023-08-24T02:13:33;95405.69;;;23.50;84.33
3096;BME280;1558;42.700;23.360;2023-08-24T02:16:02;95399.13;;;23.71;84.02
3096;BME280;1558;42.700;23.360;2023-08-24T02:18:31;95407.28;;;23.78;82.93
3096;BME280;1558;42.700;23.360;2023-08-24T02:20:59;95411.09;;;23.87;83.23
3096;BME280;1558;42.700;23.360;2023-08-24T02:23:27;95409.41;;;23.97;82.48
3096;BME280;1558;42.700;23.360;2023-08-24T02:25:56;95414.97;;;23.93;82.73
3096;BME280;1558;42.700;23.360;2023-08-24T02:28:24;95401.88;;;23.37;85.41
3096;BME280;1558;42.700;23.360;2023-08-24T02:30:53;95373.34;;;23.20;84.75
3096;BME280;1558;42.700;23.360;2023-08-24T02:33:22;95384.38;;;23.54;84.26
3096;BME280;1558;42.700;23.360;2023-08-24T02:35:50;95407.63;;;23.83;83.24
3096;BME280;1558;42.700;23.360;2023-08-24T02:38:18;95292.50;;;23.07;83.19
3096;BME280;1558;42.700;23.360;2023-08-24T02:40:46;95355.91;;;23.30;82.68
3096;BME280;1558;42.700;23.360;2023-08-24T02:43:14;95394.22;;;23.55;83.58
3096;BME280;1558;42.700;23.360;2023-08-24T02:45:42;95394.94;;;23.59;82.83
3096;BME280;1558;42.700;23.360;2023-08-24T02:48:12;95391.84;;;23.53;82.50
3096;BME280;1558;42.700;23.360;2023-08-24T02:50:40;95347.38;;;23.21;82.23
3096;BME280;1558;42.700;23.360;2023-08-24T02:53:08;95388.31;;;23.19;83.79
3096;BME280;1558;42.700;23.360;2023-08-24T02:55:36;95394.75;;;23.43;82.88
3096;BME280;1558;42.700;23.360;2023-08-24T02:58:04;95319.94;;;23.14;83.29
3096;BME280;1558;42.700;23.360;2023-08-24T03:00:32;95400.16;;;23.84;82.84
3096;BME280;1558;42.700;23.360;2023-08-24T03:03:00;95398.38;;;23.97;81.94
3096;BME280;1558;42.700;23.360;2023-08-24T03:05:30;95403.72;;;24.11;81.11
3096;BME280;1558;42.700;23.360;2023-08-24T03:07:58;95396.06;;;23.92;80.79
3096;BME280;1558;42.700;23.360;2023-08-24T03:10:27;95406.75;;;23.90;80.68
3096;BME280;1558;42.700;23.360;2023-08-24T03:12:55;95414.91;;;23.97;80.94
3096;BME280;1558;42.700;23.360;2023-08-24T03:15:23;95312.66;;;22.97;81.41
3096;BME280;1558;42.700;23.360;2023-08-24T03:17:51;95412.44;;;23.45;82.78
3096;BME280;1558;42.700;23.360;2023-08-24T03:20:20;95410.47;;;22.61;88.45
3096;BME280;1558;42.700;23.360;2023-08-24T03:22:50;95414.25;;;22.30;89.90
3096;BME280;1558;42.700;23.360;2023-08-24T03:25:18;95414.09;;;22.51;90.46
3096;BME280;1558;42.700;23.360;2023-08-24T03:27:46;95426.50;;;22.73;90.06
3096;BME280;1558;42.700;23.360;2023-08-24T03:30:15;95426.06;;;22.78;90.16
3096;BME280;1558;42.700;23.360;2023-08-24T03:32:43;95410.41;;;22.68;90.40
3096;BME280;1558;42.700;23.360;2023-08-24T03:35:11;95392.16;;;22.44;90.83
3096;BME280;1558;42.700;23.360;2023-08-24T03:37:40;95424.66;;;22.56;91.25
3096;BME280;1558;42.700;23.360;2023-08-24T03:40:10;95425.09;;;22.47;91.75
3096;BME280;1558;42.700;23.360;2023-08-24T03:42:38;95432.97;;;22.42;92.18
3096;BME280;1558;42.700;23.360;2023-08-24T03:45:06;95447.19;;;22.37;92.52
3096;BME280;1558;42.700;23.360;2023-08-24T03:47:35;95443.28;;;22.31;92.72
3096;BME280;1558;42.700;23.360;2023-08-24T03:50:03;95446.59;;;22.08;93.33
3096;BME280;1558;42.700;23.360;2023-08-24T03:52:32;95441.88;;;22.05;94.36
3096;BME280;1558;42.700;23.360;2023-08-24T03:55:00;95450.53;;;22.00;94.99
3096;BME280;1558;42.700;23.360;2023-08-24T03:57:30;95451.31;;;22.00;95.46
3096;BME280;1558;42.700;23.360;2023-08-24T03:59:58;95445.41;;;22.05;95.98
3096;BME280;1558;42.700;23.360;2023-08-24T04:02:27;95450.47;;;22.14;94.82
3096;BME280;1558;42.700;23.360;2023-08-24T04:04:55;95438.72;;;22.06;95.15
3096;BME280;1558;42.700;23.360;2023-08-24T04:07:23;95408.25;;;21.76;95.68
3096;BME280;1558;42.700;23.360;2023-08-24T04:09:51;95447.34;;;22.08;96.08
3096;BME280;1558;42.700;23.360;2023-08-24T04:12:19;95443.41;;;22.13;95.25
3096;BME280;1558;42.700;23.360;2023-08-24T04:14:48;95444.50;;;22.26;94.94
3096;BME280;1558;42.700;23.360;2023-08-24T04:17:16;95439.31;;;22.39;94.16
3096;BME280;1558;42.700;23.360;2023-08-24T04:19:44;95401.72;;;22.21;93.81
3096;BME280;1558;42.700;23.360;2023-08-24T04:22:12;95439.25;;;22.46;93.78
3096;BME280;1558;42.700;23.360;2023-08-24T04:24:40;95435.91;;;22.75;93.25
3096;BME280;1558;42.700;23.360;2023-08-24T04:27:09;95449.16;;;22.87;92.17
3096;BME280;1558;42.700;23.360;2023-08-24T04:29:37;95416.75;;;22.61;91.68
3096;BME280;1558;42.700;23.360;2023-08-24T04:32:06;95457.81;;;22.86;91.60
3096;BME280;1558;42.700;23.360;2023-08-24T04:34:35;95457.84;;;22.82;91.03
3096;BME280;1558;42.700;23.360;2023-08-24T04:37:03;95454.34;;;22.82;90.48
3096;BME280;1558;42.700;23.360;2023-08-24T04:39:32;95453.63;;;22.71;90.73
3096;BME280;1558;42.700;23.360;2023-08-24T04:42:00;95454.88;;;22.63;91.02
3096;BME280;1558;42.700;23.360;2023-08-24T04:44:29;95448.19;;;22.64;91.46
3096;BME280;1558;42.700;23.360;2023-08-24T04:46:57;95454.41;;;22.71;91.60
3096;BME280;1558;42.700;23.360;2023-08-24T04:49:26;95433.53;;;22.77;91.06
3096;BME280;1558;42.700;23.360;2023-08-24T04:51:55;95444.09;;;22.82;90.53
3096;BME280;1558;42.700;23.360;2023-08-24T04:54:23;95453.38;;;22.99;90.16
3096;BME280;1558;42.700;23.360;2023-08-24T04:56:51;95454.75;;;23.18;89.47
3096;BME280;1558;42.700;23.360;2023-08-24T04:59:19;95457.78;;;23.30;88.68
3096;BME280;1558;42.700;23.360;2023-08-24T05:01:47;95455.00;;;23.34;88.83
3096;BME280;1558;42.700;23.360;2023-08-24T05:04:15;95451.00;;;23.42;88.08
3096;BME280;1558;42.700;23.360;2023-08-24T05:06:47;95460.53;;;23.30;87.62
3096;BME280;1558;42.700;23.360;2023-08-24T05:09:15;95468.50;;;23.25;88.68
3096;BME280;1558;42.700;23.360;2023-08-24T05:11:43;95387.78;;;22.94;87.69
3096;BME280;1558;42.700;23.360;2023-08-24T05:14:11;95468.91;;;23.61;87.38
3096;BME280;1558;42.700;23.360;2023-08-24T05:16:40;95474.53;;;23.50;86.63
3096;BME280;1558;42.700;23.360;2023-08-24T05:19:09;95476.94;;;23.44;86.71
3096;BME280;1558;42.700;23.360;2023-08-24T05:21:37;95478.47;;;23.49;86.70
3096;BME280;1558;42.700;23.360;2023-08-24T05:24:06;95459.69;;;23.40;87.05
3096;BME280;1558;42.700;23.360;2023-08-24T05:26:35;95482.00;;;23.53;86.70
3096;BME280;1558;42.700;23.360;2023-08-24T05:29:03;95484.03;;;23.45;86.18
3096;BME280;1558;42.700;23.360;2023-08-24T05:31:31;95471.50;;;23.37;86.70
3096;BME280;1558;42.700;23.360;2023-08-24T05:33:59;95485.28;;;23.37;86.21
3096;BME280;1558;42.700;23.360;2023-08-24T05:36:27;95483.31;;;23.38;86.73
3096;BME280;1558;42.700;23.360;2023-08-24T05:38:55;95486.72;;;23.49;86.09
3096;BME280;1558;42.700;23.360;2023-08-24T05:41:28;95486.22;;;23.61;85.57
3096;BME280;1558;42.700;23.360;2023-08-24T05:43:56;95487.72;;;23.66;85.25
3096;BME280;1558;42.700;23.360;2023-08-24T05:46:24;95487.56;;;23.80;84.87
3096;BME280;1558;42.700;23.360;2023-08-24T05:48:52;95480.81;;;24.18;83.55
3096;BME280;1558;42.700;23.360;2023-08-24T05:51:20;95459.78;;;24.01;82.68
3096;BME280;1558;42.700;23.360;2023-08-24T05:53:49;95480.06;;;24.17;82.27
3096;BME280;1558;42.700;23.360;2023-08-24T05:56:42;95501.16;;;24.58;81.49
3096;BME280;1558;42.700;23.360;2023-08-24T05:59:10;95485.91;;;24.76;80.13
3096;BME280;1558;42.700;23.360;2023-08-24T06:01:38;95488.16;;;25.54;79.12
3096;BME280;1558;42.700;23.360;2023-08-24T06:04:08;95491.38;;;25.92;76.56
3096;BME280;1558;42.700;23.360;2023-08-24T06:06:37;95486.03;;;26.93;73.33
3096;BME280;1558;42.700;23.360;2023-08-24T06:09:05;95486.56;;;26.88;71.19
3096;BME280;1558;42.700;23.360;2023-08-24T06:11:37;95478.41;;;27.29;70.98
3096;BME280;1558;42.700;23.360;2023-08-24T06:14:09;95495.25;;;28.24;66.18
3096;BME280;1558;42.700;23.360;2023-08-24T06:16:37;95497.53;;;28.54;62.98
3096;BME280;1558;42.700;23.360;2023-08-24T06:19:05;95491.78;;;28.87;62.28
3096;BME280;1558;42.700;23.360;2023-08-24T06:21:33;95495.75;;;29.11;61.18
3096;BME280;1558;42.700;23.360;2023-08-24T06:24:01;95484.31;;;29.68;59.39
3096;BME280;1558;42.700;23.360;2023-08-24T06:26:30;95487.47;;;29.92;59.28
3096;BME280;1558;42.700;23.360;2023-08-24T06:28:58;95492.81;;;30.30;57.31
3096;BME280;1558;42.700;23.360;2023-08-24T06:31:28;95495.38;;;30.98;56.95
3096;BME280;1558;42.700;23.360;2023-08-24T06:33:58;95489.22;;;31.52;54.24
3096;BME280;1558;42.700;23.360;2023-08-24T06:36:27;95491.47;;;31.35;53.56
3096;BME280;1558;42.700;23.360;2023-08-24T06:38:56;95497.91;;;31.14;53.18
3096;BME280;1558;42.700;23.360;2023-08-24T06:41:25;95493.91;;;31.15;52.91
3096;BME280;1558;42.700;23.360;2023-08-24T06:43:53;95491.53;;;31.44;52.89
3096;BME280;1558;42.700;23.360;2023-08-24T06:46:22;95492.31;;;31.90;51.83
3096;BME280;1558;42.700;23.360;2023-08-24T06:48:51;95491.09;;;32.28;50.43
3096;BME280;1558;42.700;23.360;2023-08-24T06:51:19;95481.16;;;30.74;51.88
3096;BME280;1558;42.700;23.360;2023-08-24T06:53:47;95491.09;;;30.75;53.57
3096;BME280;1558;42.700;23.360;2023-08-24T06:56:15;95487.41;;;31.18;53.54
3096;BME280;1558;42.700;23.360;2023-08-24T06:58:44;95487.19;;;31.53;51.76
3096;BME280;1558;42.700;23.360;2023-08-24T07:01:12;95483.44;;;31.37;51.56
3096;BME280;1558;42.700;23.360;2023-08-24T07:03:40;95445.97;;;30.59;52.38
3096;BME280;1558;42.700;23.360;2023-08-24T07:06:09;95485.00;;;29.94;54.07
3096;BME280;1558;42.700;23.360;2023-08-24T07:08:38;95484.16;;;29.72;55.17
3096;BME280;1558;42.700;23.360;2023-08-24T07:11:06;95481.38;;;30.49;55.09
3096;BME280;1558;42.700;23.360;2023-08-24T07:13:34;95485.31;;;31.01;53.93
3096;BME280;1558;42.700;23.360;2023-08-24T07:16:03;95475.72;;;31.87;51.52
3096;BME280;1558;42.700;23.360;2023-08-24T07:18:31;95464.34;;;32.54;50.04
3096;BME280;1558;42.700;23.360;2023-08-24T07:20:59;95475.19;;;33.35;47.73
3096;BME280;1558;42.700;23.360;2023-08-24T07:23:28;95481.19;;;33.43;47.00
3096;BME280;1558;42.700;23.360;2023-08-24T07:25:56;95483.91;;;33.05;47.08
3096;BME280;1558;42.700;23.360;2023-08-24T07:28:24;95482.47;;;32.67;47.35
3096;BME280;1558;42.700;23.360;2023-08-24T07:30:52;95474.34;;;33.20;47.05
3096;BME280;1558;42.700;23.360;2023-08-24T07:33:23;95455.19;;;32.53;46.19
3096;BME280;1558;42.700;23.360;2023-08-24T07:35:53;95470.47;;;31.80;48.71
3096;BME280;1558;42.700;23.360;2023-08-24T07:38:21;95467.56;;;32.70;48.19
3096;BME280;1558;42.700;23.360;2023-08-24T07:40:50;95478.66;;;33.30;46.12
3096;BME280;1558;42.700;23.360;2023-08-24T07:43:18;95470.97;;;33.87;45.17
3096;BME280;1558;42.700;23.360;2023-08-24T07:45:46;95471.06;;;34.46;43.92
3096;BME280;1558;42.700;23.360;2023-08-24T07:48:14;95468.16;;;34.69;43.44
3096;BME280;1558;42.700;23.360;2023-08-24T07:50:43;95466.03;;;34.64;42.44
3096;BME280;1558;42.700;23.360;2023-08-24T07:53:11;95469.81;;;34.32;43.08
3096;BME280;1558;42.700;23.360;2023-08-24T07:55:39;95464.69;;;33.92;43.18
3096;BME280;1558;42.700;23.360;2023-08-24T07:58:08;95450.97;;;34.33;42.60
3096;BME280;1558;42.700;23.360;2023-08-24T08:00:36;95460.50;;;35.34;42.09
3096;BME280;1558;42.700;23.360;2023-08-24T08:03:04;95466.47;;;35.42;40.37
3096;BME280;1558;42.700;23.360;2023-08-24T08:05:32;95453.16;;;35.36;40.29
3096;BME280;1558;42.700;23.360;2023-08-24T08:08:01;95470.53;;;35.75;39.95
3096;BME280;1558;42.700;23.360;2023-08-24T08:10:29;95464.72;;;35.59;40.23
3096;BME280;1558;42.700;23.360;2023-08-24T08:12:57;95436.81;;;35.55;39.77
3096;BME280;1558;42.700;23.360;2023-08-24T08:15:26;95446.28;;;35.78;39.06
3096;BME280;1558;42.700;23.360;2023-08-24T08:17:54;95458.31;;;35.98;38.77
3096;BME280;1558;42.700;23.360;2023-08-24T08:20:23;95460.03;;;36.42;38.50
3096;BME280;1558;42.700;23.360;2023-08-24T08:22:51;95456.31;;;36.30;37.79
3096;BME280;1558;42.700;23.360;2023-08-24T08:25:19;95461.06;;;35.73;38.42
3096;BME280;1558;42.700;23.360;2023-08-24T08:27:49;95455.31;;;36.28;37.61
3096;BME280;1558;42.700;23.360;2023-08-24T08:30:18;95455.28;;;36.02;38.27
3096;BME280;1558;42.700;23.360;2023-08-24T08:32:48;95452.19;;;36.00;38.71
3096;BME280;1558;42.700;23.360;2023-08-24T08:35:18;95462.06;;;36.93;37.38
3096;BME280;1558;42.700;23.360;2023-08-24T08:37:46;95460.38;;;37.43;36.29
3096;BME280;1558;42.700;23.360;2023-08-24T08:40:17;95450.34;;;37.84;35.81
3096;BME280;1558;42.700;23.360;2023-08-24T08:42:45;95444.91;;;37.33;36.11
3096;BME280;1558;42.700;23.360;2023-08-24T08:45:13;95441.06;;;36.62;36.93
3096;BME280;1558;42.700;23.360;2023-08-24T08:47:42;95423.09;;;36.54;36.77
3096;BME280;1558;42.700;23.360;2023-08-24T08:50:11;95436.88;;;35.81;37.51
3096;BME280;1558;42.700;23.360;2023-08-24T08:52:39;95429.19;;;36.47;38.16
3096;BME280;1558;42.700;23.360;2023-08-24T08:55:08;95432.13;;;36.95;36.99
3096;BME280;1558;42.700;23.360;2023-08-24T08:57:37;95428.78;;;37.81;35.56
3096;BME280;1558;42.700;23.360;2023-08-24T09:00:10;95419.47;;;37.11;35.73
3096;BME280;1558;42.700;23.360;2023-08-24T09:02:43;95422.34;;;37.70;35.28
3096;BME280;1558;42.700;23.360;2023-08-24T09:05:14;95415.63;;;37.14;35.62
3096;BME280;1558;42.700;23.360;2023-08-24T09:07:42;95416.91;;;37.55;35.74
3096;BME280;1558;42.700;23.360;2023-08-24T09:10:10;95405.38;;;38.56;34.35
3096;BME280;1558;42.700;23.360;2023-08-24T09:12:38;95394.88;;;38.57;33.89
3096;BME280;1558;42.700;23.360;2023-08-24T09:15:07;95405.94;;;37.68;34.54
3096;BME280;1558;42.700;23.360;2023-08-24T09:17:35;95399.81;;;37.70;35.04
3096;BME280;1558;42.700;23.360;2023-08-24T09:20:06;95384.09;;;38.28;33.70
3096;BME280;1558;42.700;23.360;2023-08-24T09:22:37;95395.31;;;38.06;34.32
3096;BME280;1558;42.700;23.360;2023-08-24T09:25:09;95382.28;;;38.47;33.70
3096;BME280;1558;42.700;23.360;2023-08-24T09:27:37;95356.66;;;38.78;33.27
3096;BME280;1558;42.700;23.360;2023-08-24T09:30:07;95381.78;;;38.93;32.74
3096;BME280;1558;42.700;23.360;2023-08-24T09:32:35;95362.03;;;38.87;32.33
3096;BME280;1558;42.700;23.360;2023-08-24T09:35:06;95374.50;;;39.36;32.42
3096;BME280;1558;42.700;23.360;2023-08-24T09:37:37;95366.63;;;39.81;32.00
3096;BME280;1558;42.700;23.360;2023-08-24T09:40:07;95360.72;;;38.99;32.40
3096;BME280;1558;42.700;23.360;2023-08-24T09:42:39;95354.59;;;38.62;32.81
3096;BME280;1558;42.700;23.360;2023-08-24T09:45:11;95353.56;;;38.87;32.35
3096;BME280;1558;42.700;23.360;2023-08-24T09:47:45;95350.41;;;39.30;31.90
3096;BME280;1558;42.700;23.360;2023-08-24T09:50:14;95355.59;;;38.92;32.58
3096;BME280;1558;42.700;23.360;2023-08-24T09:52:44;95348.44;;;38.80;32.89
3096;BME280;1558;42.700;23.360;2023-08-24T09:55:16;95348.63;;;39.27;31.90
3096;BME280;1558;42.700;23.360;2023-08-24T09:57:50;95339.66;;;39.22;30.88
3096;BME280;1558;42.700;23.360;2023-08-24T10:00:20;95338.41;;;38.85;32.17
3096;BME280;1558;42.700;23.360;2023-08-24T10:02:52;95334.00;;;39.22;30.50
3096;BME280;1558;42.700;23.360;2023-08-24T10:05:23;95340.81;;;39.49;31.01
3096;BME280;1558;42.700;23.360;2023-08-24T10:07:56;95336.94;;;40.04;29.76
3096;BME280;1558;42.700;23.360;2023-08-24T10:10:27;95328.06;;;39.83;30.90
3096;BME280;1558;42.700;23.360;2023-08-24T10:12:59;95317.44;;;39.95;30.91
3096;BME280;1558;42.700;23.360;2023-08-24T10:15:29;95324.91;;;41.17;29.57
3096;BME280;1558;42.700;23.360;2023-08-24T10:17:58;95327.34;;;42.06;28.36
3096;BME280;1558;42.700;23.360;2023-08-24T10:20:27;95324.91;;;41.17;28.58
3096;BME280;1558;42.700;23.360;2023-08-24T10:22:57;95318.75;;;41.37;27.96
3096;BME280;1558;42.700;23.360;2023-08-24T10:25:31;95329.25;;;40.70;28.82
3096;BME280;1558;42.700;23.360;2023-08-24T10:28:00;95310.78;;;39.92;29.36
3096;BME280;1558;42.700;23.360;2023-08-24T10:30:29;95310.00;;;38.11;31.10
3096;BME280;1558;42.700;23.360;2023-08-24T10:32:59;95317.47;;;36.90;32.15
3096;BME280;1558;42.700;23.360;2023-08-24T10:35:28;95315.47;;;36.23;33.85
3096;BME280;1558;42.700;23.360;2023-08-24T10:37:59;95318.63;;;36.36;33.62
3096;BME280;1558;42.700;23.360;2023-08-24T10:40:34;95318.38;;;36.03;34.45
3096;BME280;1558;42.700;23.360;2023-08-24T10:43:05;95321.69;;;36.01;35.06
3096;BME280;1558;42.700;23.360;2023-08-24T10:45:54;95324.75;;;36.03;34.46
3096;BME280;1558;42.700;23.360;2023-08-24T10:48:24;95310.44;;;35.75;35.26
3096;BME280;1558;42.700;23.360;2023-08-24T10:51:21;95316.44;;;35.63;36.00
3096;BME280;1558;42.700;23.360;2023-08-24T10:53:56;95316.00;;;35.70;36.97
3096;BME280;1558;42.700;23.360;2023-08-24T10:56:36;95323.19;;;35.51;37.77
3096;BME280;1558;42.700;23.360;2023-08-24T10:59:15;95325.59;;;35.17;38.17
3096;BME280;1558;42.700;23.360;2023-08-24T11:01:54;95317.69;;;34.81;37.79
3096;BME280;1558;42.700;23.360;2023-08-24T11:04:23;95282.28;;;33.99;38.46
3096;BME280;1558;42.700;23.360;2023-08-24T11:06:53;95292.13;;;34.10;38.74
3096;BME280;1558;42.700;23.360;2023-08-24T11:09:23;95306.59;;;34.37;39.13
3096;BME280;1558;42.700;23.360;2023-08-24T11:11:59;95308.13;;;34.38;39.62
3096;BME280;1558;42.700;23.360;2023-08-24T11:14:27;95309.41;;;34.37;39.64
3096;BME280;1558;42.700;23.360;2023-08-24T11:17:00;95303.53;;;34.21;39.19
3096;BME280;1558;42.700;23.360;2023-08-24T11:19:29;95300.41;;;34.33;39.15
3096;BME280;1558;42.700;23.360;2023-08-24T11:21:58;95293.63;;;34.40;39.29
3096;BME280;1558;42.700;23.360;2023-08-24T11:24:28;95292.09;;;34.39;39.42
3096;BME280;1558;42.700;23.360;2023-08-24T11:26:57;95302.44;;;34.33;39.58
3096;BME280;1558;42.700;23.360;2023-08-24T11:29:29;95299.28;;;34.11;39.54
3096;BME280;1558;42.700;23.360;2023-08-24T11:31:57;95299.84;;;34.00;40.55
3096;BME280;1558;42.700;23.360;2023-08-24T11:34:26;95313.00;;;33.94;40.96
3096;BME280;1558;42.700;23.360;2023-08-24T11:36:54;95269.13;;;33.47;41.21
3096;BME280;1558;42.700;23.360;2023-08-24T11:39:23;95294.00;;;33.30;42.88
3096;BME280;1558;42.700;23.360;2023-08-24T11:42:01;95300.94;;;33.20;43.52
3096;BME280;1558;42.700;23.360;2023-08-24T11:44:44;95276.84;;;32.75;44.12
3096;BME280;1558;42.700;23.360;2023-08-24T11:47:12;95302.81;;;32.34;45.96
3096;BME280;1558;42.700;23.360;2023-08-24T11:49:41;95249.59;;;31.96;46.15
3096;BME280;1558;42.700;23.360;2023-08-24T11:52:09;95306.50;;;32.40;46.66
3096;BME280;1558;42.700;23.360;2023-08-24T11:54:37;95279.88;;;32.30;46.60
3096;BME280;1558;42.700;23.360;2023-08-24T11:57:07;95295.00;;;32.15;46.98
3096;BME280;1558;42.700;23.360;2023-08-24T11:59:36;95288.63;;;32.14;47.01
3096;BME280;1558;42.700;23.360;2023-08-24T12:02:05;95280.78;;;32.03;47.11
3096;BME280;1558;42.700;23.360;2023-08-24T12:04:39;95279.84;;;31.97;47.07
3096;BME280;1558;42.700;23.360;2023-08-24T12:07:10;95276.31;;;31.88;46.54
3096;BME280;1558;42.700;23.360;2023-08-24T12:09:39;95271.38;;;31.83;46.24
3096;BME280;1558;42.700;23.360;2023-08-24T12:12:13;95242.16;;;31.51;46.04
3096;BME280;1558;42.700;23.360;2023-08-24T12:14:41;95260.56;;;31.67;46.14
3096;BME280;1558;42.700;23.360;2023-08-24T12:17:10;95203.56;;;31.40;45.35
3096;BME280;1558;42.700;23.360;2023-08-24T12:19:41;95253.88;;;31.64;45.38
3096;BME280;1558;42.700;23.360;2023-08-24T12:22:13;95238.78;;;31.47;46.61
3096;BME280;1558;42.700;23.360;2023-08-24T12:24:43;95193.44;;;31.01;47.63
3096;BME280;1558;42.700;23.360;2023-08-24T12:27:19;95251.78;;;31.32;48.50
3096;BME280;1558;42.700;23.360;2023-08-24T12:29:48;95263.84;;;31.29;48.88
3096;BME280;1558;42.700;23.360;2023-08-24T12:32:17;95260.91;;;31.41;48.39
3096;BME280;1558;42.700;23.360;2023-08-24T12:34:46;95264.78;;;31.35;48.80
3096;BME280;1558;42.700;23.360;2023-08-24T12:37:15;95269.28;;;31.32;47.96
3096;BME280;1558;42.700;23.360;2023-08-24T12:39:43;95279.81;;;31.37;48.19
3096;BME280;1558;42.700;23.360;2023-08-24T12:42:11;95276.75;;;31.44;47.96
3096;BME280;1558;42.700;23.360;2023-08-24T12:44:41;95283.47;;;31.80;47.39
3096;BME280;1558;42.700;23.360;2023-08-24T12:47:09;95288.22;;;32.06;47.58
3096;BME280;1558;42.700;23.360;2023-08-24T12:49:37;95289.31;;;32.09;47.91
3096;BME280;1558;42.700;23.360;2023-08-24T12:52:06;95286.22;;;31.98;47.77
3096;BME280;1558;42.700;23.360;2023-08-24T12:54:34;95227.47;;;31.32;48.92
3096;BME280;1558;42.700;23.360;2023-08-24T12:57:02;95299.13;;;31.77;50.22
3096;BME280;1558;42.700;23.360;2023-08-24T12:59:30;95300.69;;;31.78;50.56
3096;BME280;1558;42.700;23.360;2023-08-24T13:01:59;95306.78;;;31.59;50.26
3096;BME280;1558;42.700;23.360;2023-08-24T13:04:27;95320.09;;;31.55;50.24
3096;BME280;1558;42.700;23.360;2023-08-24T13:06:57;95304.63;;;31.35;50.30
3096;BME280;1558;42.700;23.360;2023-08-24T13:09:26;95311.59;;;31.49;49.37
3096;BME280;1558;42.700;23.360;2023-08-24T13:11:54;95289.25;;;31.31;49.45
3096;BME280;1558;42.700;23.360;2023-08-24T13:14:22;95316.38;;;31.58;49.22
3096;BME280;1558;42.700;23.360;2023-08-24T13:16:50;95289.44;;;31.27;49.29
3096;BME280;1558;42.700;23.360;2023-08-24T13:19:20;95309.91;;;31.52;49.14
3096;BME280;1558;42.700;23.360;2023-08-24T13:21:48;95295.00;;;31.64;48.83